createdAt,value
2023-03-21T00:01:04.938Z,8.44
2023-03-21T00:03:33.676Z,8.42
2023-03-21T00:06:06.760Z,8.40
2023-03-21T00:08:33.233Z,8.40
2023-03-21T00:11:02.639Z,8.37
2023-03-21T00:13:33.729Z,8.34
2023-03-21T00:16:13.868Z,8.47
2023-03-21T00:18:52.363Z,8.41
2023-03-21T00:21:43.957Z,8.42
2023-03-21T00:24:08.064Z,8.40
2023-03-21T00:26:35.754Z,8.39
2023-03-21T00:29:02.414Z,8.40
2023-03-21T00:31:29.014Z,8.42
2023-03-21T00:33:59.594Z,8.37
2023-03-21T00:36:26.747Z,8.33
2023-03-21T00:38:54.217Z,8.37
2023-03-21T00:41:35.226Z,8.42
2023-03-21T00:44:07.208Z,8.40
2023-03-21T00:46:44.030Z,8.39
2023-03-21T00:49:21.085Z,8.51
2023-03-21T00:51:51.231Z,8.42
2023-03-21T00:54:17.988Z,8.34
2023-03-21T00:56:44.447Z,8.41
2023-03-21T00:59:10.918Z,8.39
2023-03-21T01:01:39.944Z,8.46
2023-03-21T01:04:07.756Z,8.35
2023-03-21T01:06:40.562Z,8.39
2023-03-21T01:09:12.829Z,8.46
2023-03-21T01:11:42.344Z,8.39
2023-03-21T01:14:21.433Z,8.39
2023-03-21T01:16:50.320Z,8.39
2023-03-21T01:19:48.683Z,8.37
2023-03-21T01:22:06.041Z,8.32
2023-03-21T01:24:40.343Z,8.34
2023-03-21T01:27:10.142Z,8.28
2023-03-21T01:29:36.599Z,8.27
2023-03-21T01:32:03.087Z,8.33
2023-03-21T01:34:29.998Z,8.30
2023-03-21T01:36:58.689Z,8.36
2023-03-21T01:39:25.445Z,8.39
2023-03-21T01:41:51.915Z,8.33
2023-03-21T01:44:19.306Z,8.25
2023-03-21T01:47:03.629Z,8.33
2023-03-21T01:49:39.814Z,8.38
2023-03-21T01:52:15.301Z,8.33
2023-03-21T01:54:44.824Z,8.34
2023-03-21T01:57:17.029Z,8.34
2023-03-21T01:59:48.175Z,8.25
2023-03-21T02:02:20.863Z,8.29
2023-03-21T02:04:51.128Z,8.30
2023-03-21T02:07:25.714Z,8.31
2023-03-21T02:09:53.441Z,8.30
2023-03-21T02:12:22.708Z,8.28
2023-03-21T02:14:50.212Z,8.32
2023-03-21T02:17:52.184Z,8.32
2023-03-21T02:20:40.883Z,8.31
2023-03-21T02:23:35.281Z,8.32
2023-03-21T02:26:42.966Z,8.33
2023-03-21T02:29:25.177Z,8.34
2023-03-21T02:32:19.999Z,8.40
2023-03-21T02:35:20.052Z,8.31
2023-03-21T02:38:08.147Z,8.26
2023-03-21T02:40:43.306Z,8.32
2023-03-21T02:43:48.073Z,8.32
2023-03-21T02:46:40.175Z,8.36
2023-03-21T02:49:17.005Z,8.43
2023-03-21T02:51:48.338Z,8.37
2023-03-21T02:54:35.118Z,8.31
2023-03-21T02:57:11.565Z,8.38
2023-03-21T02:59:51.626Z,8.40
2023-03-21T03:02:24.998Z,8.44
2023-03-21T03:04:51.474Z,8.39
2023-03-21T03:07:41.664Z,8.39
2023-03-21T03:10:32.015Z,8.35
2023-03-21T03:13:17.177Z,8.35
2023-03-21T03:16:18.418Z,8.38
2023-03-21T03:18:57.284Z,8.41
2023-03-21T03:21:38.991Z,8.37
2023-03-21T03:24:13.852Z,8.46
2023-03-21T03:26:51.469Z,8.45
2023-03-21T03:29:20.846Z,8.42
2023-03-21T03:31:57.793Z,8.37
2023-03-21T03:34:29.546Z,8.35
2023-03-21T03:36:58.908Z,8.37
2023-03-21T03:39:35.868Z,8.44
2023-03-21T03:42:21.655Z,8.49
2023-03-21T03:44:54.133Z,8.46
2023-03-21T03:47:36.365Z,8.48
2023-03-21T03:50:13.755Z,8.43
2023-03-21T03:52:56.093Z,8.42
2023-03-21T03:55:27.279Z,8.41
2023-03-21T03:57:54.929Z,8.44
2023-03-21T04:00:21.593Z,8.47
2023-03-21T04:02:48.229Z,8.43
2023-03-21T04:05:15.325Z,8.45
2023-03-21T04:07:46.081Z,8.45
2023-03-21T04:10:12.532Z,8.49
2023-03-21T04:12:38.972Z,8.47
2023-03-21T04:15:10.714Z,8.42
2023-03-21T04:17:39.785Z,8.42
2023-03-21T04:20:13.956Z,8.49
2023-03-21T04:22:45.526Z,8.49
2023-03-21T04:25:18.975Z,8.40
2023-03-21T04:27:50.887Z,8.44
2023-03-21T04:30:17.359Z,8.45
2023-03-21T04:32:43.802Z,8.45
2023-03-21T04:35:11.431Z,8.38
2023-03-21T04:37:39.266Z,8.39
2023-03-21T04:40:11.955Z,8.35
2023-03-21T04:42:38.553Z,8.35
2023-03-21T04:45:05.621Z,8.38
2023-03-21T04:47:32.152Z,8.34
2023-03-21T04:49:58.606Z,8.38
2023-03-21T04:52:25.584Z,8.35
2023-03-21T04:54:52.191Z,8.33
2023-03-21T04:57:18.646Z,8.28
2023-03-21T04:59:45.983Z,8.28
2023-03-21T05:02:12.854Z,8.32
2023-03-21T05:04:39.975Z,8.30
2023-03-21T05:07:06.758Z,8.33
2023-03-21T05:09:37.760Z,8.37
2023-03-21T05:12:04.778Z,8.42
2023-03-21T05:14:31.351Z,8.34
2023-03-21T05:16:58.234Z,8.41
2023-03-21T05:19:38.513Z,8.39
2023-03-21T05:22:08.612Z,8.34
2023-03-21T05:24:39.190Z,8.24
2023-03-21T05:27:05.808Z,8.38
2023-03-21T05:29:38.457Z,8.34
2023-03-21T05:32:05.273Z,8.34
2023-03-21T05:34:32.142Z,8.32
2023-03-21T05:36:58.707Z,8.37
2023-03-21T05:39:25.233Z,8.46
2023-03-21T05:41:51.661Z,8.53
2023-03-21T05:44:25.425Z,8.49
2023-03-21T05:46:51.880Z,8.54
2023-03-21T05:49:18.414Z,8.55
2023-03-21T05:51:45.365Z,8.56
2023-03-21T05:54:16.629Z,8.69
2023-03-21T05:56:45.406Z,8.69
2023-03-21T05:59:11.883Z,8.83
2023-03-21T06:01:38.320Z,8.83
2023-03-21T06:04:04.883Z,8.94
2023-03-21T06:06:31.522Z,9.07
2023-03-21T06:08:57.981Z,9.04
2023-03-21T06:11:31.018Z,9.08
2023-03-21T06:13:57.558Z,9.16
2023-03-21T06:16:24.076Z,9.10
2023-03-21T06:18:50.620Z,9.19
2023-03-21T06:21:17.047Z,9.27
2023-03-21T06:23:45.580Z,9.38
2023-03-21T06:26:12.168Z,9.32
2023-03-21T06:28:38.940Z,9.45
2023-03-21T06:31:05.902Z,9.59
2023-03-21T06:33:32.418Z,9.81
2023-03-21T06:35:59.475Z,9.95
2023-03-21T06:38:26.142Z,9.99
2023-03-21T06:40:52.852Z,10.04
2023-03-21T06:43:19.510Z,10.17
2023-03-21T06:45:46.117Z,10.19
2023-03-21T06:48:12.654Z,10.20
2023-03-21T06:50:39.090Z,10.26
2023-03-21T06:53:06.329Z,10.32
2023-03-21T06:55:32.767Z,10.43
2023-03-21T06:57:59.526Z,10.61
2023-03-21T07:00:26.551Z,10.74
2023-03-21T07:02:53.896Z,10.83
2023-03-21T07:05:20.695Z,10.97
2023-03-21T07:07:47.186Z,10.95
2023-03-21T07:10:13.665Z,11.16
2023-03-21T07:12:40.250Z,11.37
2023-03-21T07:15:08.257Z,11.54
2023-03-21T07:17:34.703Z,11.58
2023-03-21T07:20:01.335Z,11.51
2023-03-21T07:22:27.820Z,11.50
2023-03-21T07:25:04.306Z,11.48
2023-03-21T07:27:31.513Z,11.54
2023-03-21T07:30:00.380Z,11.72
2023-03-21T07:32:30.011Z,11.69
2023-03-21T07:34:56.778Z,12.02
2023-03-21T07:37:24.052Z,11.79
2023-03-21T07:39:51.475Z,11.97
2023-03-21T07:42:18.349Z,11.88
2023-03-21T07:44:44.883Z,11.97
2023-03-21T07:47:11.402Z,11.95
2023-03-21T07:49:46.852Z,12.14
2023-03-21T07:52:13.325Z,12.43
2023-03-21T07:54:39.772Z,12.88
2023-03-21T07:57:07.199Z,12.89
2023-03-21T07:59:34.914Z,12.87
2023-03-21T08:02:01.437Z,12.94
2023-03-21T08:04:28.003Z,12.92
2023-03-21T08:06:58.989Z,12.90
2023-03-21T08:09:25.540Z,13.05
2023-03-21T08:11:52.016Z,13.33
2023-03-21T08:14:18.445Z,13.34
2023-03-21T08:16:45.073Z,13.25
2023-03-21T08:19:11.607Z,13.03
2023-03-21T08:21:43.385Z,13.40
2023-03-21T08:24:09.863Z,13.42
2023-03-21T08:26:36.413Z,13.14
2023-03-21T08:29:02.822Z,13.22
2023-03-21T08:31:29.346Z,13.50
2023-03-21T08:33:56.071Z,13.62
2023-03-21T08:36:31.564Z,13.70
2023-03-21T08:39:05.163Z,14.42
2023-03-21T08:41:33.004Z,14.63
2023-03-21T08:43:59.472Z,14.63
2023-03-21T08:46:29.253Z,14.10
2023-03-21T08:48:56.016Z,13.92
2023-03-21T08:51:22.563Z,14.30
2023-03-21T08:53:51.926Z,14.25
2023-03-21T08:56:18.504Z,14.76
2023-03-21T08:58:48.588Z,14.96
2023-03-21T09:01:15.960Z,15.22
2023-03-21T09:03:43.618Z,15.64
2023-03-21T09:06:14.232Z,15.45
2023-03-21T09:08:47.371Z,15.51
2023-03-21T09:11:16.822Z,15.24
2023-03-21T09:13:43.266Z,15.39
2023-03-21T09:16:10.029Z,15.78
2023-03-21T09:18:50.857Z,16.06
2023-03-21T09:21:18.505Z,15.71
2023-03-21T09:23:46.209Z,16.21
2023-03-21T09:26:13.775Z,16.02
2023-03-21T09:28:40.589Z,15.79
2023-03-21T09:31:12.048Z,15.59
2023-03-21T09:33:40.726Z,15.96
2023-03-21T09:36:12.872Z,16.16
2023-03-21T09:38:40.680Z,16.40
2023-03-21T09:41:32.167Z,16.32
2023-03-21T09:44:13.312Z,16.44
2023-03-21T09:46:49.715Z,17.09
2023-03-21T09:49:27.815Z,18.19
2023-03-21T09:51:58.554Z,18.69
2023-03-21T09:54:47.149Z,18.24
2023-03-21T09:57:29.791Z,18.77
2023-03-21T10:00:01.572Z,18.20
2023-03-21T10:02:45.623Z,18.31
2023-03-21T10:05:21.792Z,18.48
2023-03-21T10:07:59.015Z,18.79
2023-03-21T10:10:29.701Z,19.03
2023-03-21T10:12:57.193Z,19.01
2023-03-21T10:15:26.659Z,19.15
2023-03-21T10:18:00.303Z,18.85
2023-03-21T10:20:32.935Z,18.93
2023-03-21T10:23:05.598Z,18.19
2023-03-21T10:25:35.482Z,18.00
2023-03-21T10:28:04.424Z,18.06
2023-03-21T10:30:54.502Z,17.61
2023-03-21T10:33:26.374Z,17.74
2023-03-21T10:35:59.979Z,17.68
2023-03-21T10:38:27.225Z,17.71
2023-03-21T10:40:54.366Z,17.40
2023-03-21T10:43:46.295Z,17.34
2023-03-21T10:46:18.160Z,16.49
2023-03-21T10:48:48.217Z,16.44
2023-03-21T10:51:23.995Z,16.61
2023-03-21T10:54:06.544Z,16.94
2023-03-21T10:56:38.268Z,17.00
2023-03-21T10:59:06.730Z,16.99
2023-03-21T11:01:42.105Z,17.08
2023-03-21T11:04:16.066Z,17.20
2023-03-21T11:06:46.870Z,17.27
2023-03-21T11:09:20.287Z,17.14
2023-03-21T11:11:54.225Z,17.24
2023-03-21T11:14:34.222Z,17.01
2023-03-21T11:17:03.522Z,16.94
2023-03-21T11:19:36.502Z,16.77
2023-03-21T11:22:08.029Z,16.95
2023-03-21T11:24:44.906Z,16.77
2023-03-21T11:27:11.592Z,16.44
2023-03-21T11:30:00.564Z,17.09
2023-03-21T11:32:37.370Z,18.25
2023-03-21T11:35:16.921Z,19.16
2023-03-21T11:37:47.954Z,19.16
2023-03-21T11:40:31.436Z,19.23
2023-03-21T11:43:00.740Z,19.35
2023-03-21T11:45:36.037Z,19.47
2023-03-21T11:48:12.993Z,19.66
2023-03-21T11:50:47.681Z,19.89
2023-03-21T11:53:29.213Z,19.35
2023-03-21T11:56:04.053Z,18.93
2023-03-21T11:58:44.964Z,19.15
2023-03-21T12:01:13.099Z,19.49
2023-03-21T12:03:49.306Z,19.64
2023-03-21T12:06:41.686Z,19.31
2023-03-21T12:09:32.608Z,19.78
2023-03-21T12:12:39.997Z,19.15
2023-03-21T12:15:29.429Z,19.73
2023-03-21T12:18:11.509Z,20.23
2023-03-21T12:20:48.378Z,20.27
2023-03-21T12:23:45.346Z,20.57
2023-03-21T12:26:17.832Z,21.08
2023-03-21T12:29:16.650Z,21.75
2023-03-21T12:32:01.430Z,21.04
2023-03-21T12:34:55.579Z,20.28
2023-03-21T12:37:48.497Z,19.77
2023-03-21T12:40:33.948Z,19.04
2023-03-21T12:43:27.066Z,19.22
2023-03-21T12:45:59.911Z,19.18
2023-03-21T12:48:41.575Z,18.29
2023-03-21T12:51:33.967Z,18.30
2023-03-21T12:54:19.351Z,18.12
2023-03-21T12:57:02.333Z,18.26
2023-03-21T12:59:56.065Z,17.61
2023-03-21T13:02:41.629Z,17.27
2023-03-21T13:05:29.131Z,17.13
2023-03-21T13:08:04.719Z,17.57
2023-03-21T13:10:33.009Z,17.67
2023-03-21T13:13:16.965Z,17.94
2023-03-21T13:15:52.770Z,18.08
2023-03-21T13:18:31.645Z,17.85
2023-03-21T13:21:04.502Z,17.81
2023-03-21T13:23:37.012Z,17.72
2023-03-21T13:26:12.170Z,17.50
2023-03-21T13:28:40.934Z,17.36
2023-03-21T13:31:22.363Z,17.60
2023-03-21T13:33:51.119Z,17.53
2023-03-21T13:36:30.020Z,17.44
2023-03-21T13:39:04.382Z,17.60
2023-03-21T13:41:46.040Z,17.46
2023-03-21T13:44:50.160Z,17.46
2023-03-21T13:47:46.051Z,17.50
2023-03-21T13:50:18.341Z,17.28
2023-03-21T13:53:03.943Z,17.27
2023-03-21T13:55:38.294Z,17.42
2023-03-21T13:58:23.962Z,17.45
2023-03-21T14:01:15.512Z,17.27
2023-03-21T14:03:44.817Z,17.05
2023-03-21T14:06:11.919Z,16.80
2023-03-21T14:08:41.409Z,17.03
2023-03-21T14:11:16.294Z,17.12
2023-03-21T14:13:51.257Z,17.03
2023-03-21T14:16:19.217Z,16.87
2023-03-21T14:19:04.675Z,16.60
2023-03-21T14:21:34.104Z,16.70
2023-03-21T14:24:18.115Z,16.57
2023-03-21T14:26:48.954Z,16.32
2023-03-21T14:29:40.817Z,16.28
2023-03-21T14:32:07.868Z,16.40
2023-03-21T14:34:36.070Z,16.63
2023-03-21T14:37:06.726Z,16.54
2023-03-21T14:39:33.666Z,16.32
2023-03-21T14:42:06.357Z,16.43
2023-03-21T14:44:44.070Z,16.42
2023-03-21T14:47:26.053Z,16.41
2023-03-21T14:49:52.900Z,16.30
2023-03-21T14:52:27.878Z,16.10
2023-03-21T14:54:55.845Z,16.06
2023-03-21T14:57:27.687Z,15.85
2023-03-21T14:59:56.853Z,15.81
2023-03-21T15:02:31.638Z,15.66
2023-03-21T15:05:06.105Z,15.81
2023-03-21T15:07:35.099Z,15.72
2023-03-21T15:10:16.527Z,15.64
2023-03-21T15:13:01.494Z,15.46
2023-03-21T15:15:30.030Z,15.31
2023-03-21T15:18:02.970Z,15.28
2023-03-21T15:20:32.803Z,15.38
2023-03-21T15:23:07.559Z,15.36
2023-03-21T15:25:36.391Z,15.30
2023-03-21T15:28:04.874Z,15.39
2023-03-21T15:30:33.026Z,15.30
2023-03-21T15:33:07.815Z,15.17
2023-03-21T15:35:41.230Z,15.13
2023-03-21T15:38:29.994Z,14.94
2023-03-21T15:41:16.499Z,14.97
2023-03-21T15:43:46.150Z,15.09
2023-03-21T15:46:16.153Z,14.98
2023-03-21T15:48:43.280Z,14.80
2023-03-21T15:51:25.964Z,14.74
2023-03-21T15:53:54.176Z,14.76
2023-03-21T15:56:22.079Z,14.64
2023-03-21T15:58:53.114Z,14.45
2023-03-21T16:01:26.602Z,14.25
2023-03-21T16:03:58.481Z,14.18
2023-03-21T16:06:36.556Z,14.20
2023-03-21T16:09:09.108Z,14.02
2023-03-21T16:11:43.955Z,14.07
2023-03-21T16:14:20.139Z,14.13
2023-03-21T16:16:47.188Z,14.02
2023-03-21T16:19:14.219Z,14.02
2023-03-21T16:21:42.149Z,13.99
2023-03-21T16:24:11.627Z,13.91
2023-03-21T16:26:43.712Z,13.83
2023-03-21T16:29:13.323Z,13.47
2023-03-21T16:31:39.822Z,13.33
2023-03-21T16:34:07.195Z,13.36
2023-03-21T16:36:38.889Z,13.22
2023-03-21T16:39:17.296Z,13.20
2023-03-21T16:41:43.894Z,13.26
2023-03-21T16:44:10.991Z,13.22
2023-03-21T16:46:37.759Z,13.14
2023-03-21T16:49:07.490Z,12.93
2023-03-21T16:51:36.014Z,12.84
2023-03-21T16:54:02.755Z,12.85
2023-03-21T16:56:59.562Z,12.78
2023-03-21T16:59:25.990Z,12.71
2023-03-21T17:01:52.415Z,12.63
2023-03-21T17:04:19.000Z,12.43
2023-03-21T17:06:50.167Z,12.05
2023-03-21T17:09:22.764Z,12.11
2023-03-21T17:11:49.689Z,12.00
2023-03-21T17:14:17.993Z,11.97
2023-03-21T17:16:45.695Z,11.82
2023-03-21T17:19:20.401Z,11.79
2023-03-21T17:21:47.028Z,11.67
2023-03-21T17:24:13.775Z,11.66
2023-03-21T17:26:40.421Z,11.74
2023-03-21T17:29:17.481Z,11.51
2023-03-21T17:31:47.393Z,11.59
2023-03-21T17:34:14.658Z,11.55
2023-03-21T17:36:42.824Z,11.52
2023-03-21T17:39:16.958Z,11.44
2023-03-21T17:41:43.402Z,11.41
2023-03-21T17:44:09.907Z,11.48
2023-03-21T17:46:37.320Z,11.46
2023-03-21T17:49:04.856Z,11.36
2023-03-21T17:51:34.502Z,11.29
2023-03-21T17:54:01.616Z,11.29
2023-03-21T17:56:31.140Z,11.26
2023-03-21T17:58:59.642Z,11.26
2023-03-21T18:01:26.336Z,11.17
2023-03-21T18:03:55.028Z,10.93
2023-03-21T18:06:23.614Z,10.94
2023-03-21T18:08:52.903Z,10.96
2023-03-21T18:11:20.748Z,10.92
2023-03-21T18:13:48.447Z,10.90
2023-03-21T18:16:18.272Z,10.85
2023-03-21T18:18:46.503Z,10.91
2023-03-21T18:21:19.607Z,10.78
2023-03-21T18:23:47.394Z,10.72
2023-03-21T18:26:17.061Z,10.76
2023-03-21T18:28:45.390Z,10.70
2023-03-21T18:31:19.738Z,10.61
2023-03-21T18:33:48.854Z,10.56
2023-03-21T18:36:24.762Z,10.61
2023-03-21T18:38:54.090Z,10.57
2023-03-21T18:41:22.713Z,10.47
2023-03-21T18:44:11.787Z,10.45
2023-03-21T18:46:36.788Z,10.41
2023-03-21T18:49:30.362Z,10.47
2023-03-21T18:51:50.690Z,10.46
2023-03-21T18:54:17.201Z,10.37
2023-03-21T18:59:34.702Z,10.38
2023-03-21T19:02:02.076Z,10.31
2023-03-21T19:04:30.322Z,10.30
2023-03-21T19:07:11.474Z,10.35
2023-03-21T19:12:25.994Z,10.25
2023-03-21T19:14:52.451Z,10.33
2023-03-21T19:20:06.023Z,10.25
2023-03-21T19:22:32.503Z,10.37
2023-03-21T19:24:58.971Z,10.35
2023-03-21T19:27:25.821Z,10.26
2023-03-21T19:30:08.278Z,10.29
2023-03-21T19:32:39.150Z,10.16
2023-03-21T19:35:13.347Z,10.17
2023-03-21T19:37:39.835Z,10.19
2023-03-21T19:40:07.265Z,10.31
2023-03-21T19:42:36.265Z,10.30
2023-03-21T19:45:04.810Z,10.34
2023-03-21T19:47:31.314Z,10.34
2023-03-21T19:52:44.225Z,10.15
2023-03-21T19:55:10.943Z,10.21
2023-03-21T19:57:37.377Z,10.22
2023-03-21T20:00:04.773Z,10.22
2023-03-21T20:02:36.640Z,10.19
2023-03-21T20:05:07.897Z,10.12
2023-03-21T20:07:34.903Z,10.07
2023-03-21T20:10:01.458Z,10.06
2023-03-21T20:12:28.692Z,10.03
2023-03-21T20:15:07.251Z,9.99
2023-03-21T20:17:42.488Z,10.01
2023-03-21T20:20:10.283Z,9.98
2023-03-21T20:23:05.105Z,9.91
2023-03-21T20:25:24.335Z,9.93
2023-03-21T20:28:11.044Z,9.94
2023-03-21T20:30:48.471Z,9.99
2023-03-21T20:33:15.067Z,9.99
2023-03-21T20:38:34.417Z,9.96
2023-03-21T20:41:02.922Z,9.90
2023-03-21T20:46:18.970Z,9.82
2023-03-21T20:48:48.856Z,9.79
2023-03-21T20:52:27.451Z,9.81
2023-03-21T20:54:02.378Z,9.81
2023-03-21T20:56:30.428Z,9.77
2023-03-21T20:59:12.493Z,9.83
2023-03-21T21:01:43.161Z,9.78
2023-03-21T21:04:15.040Z,9.72
2023-03-21T21:06:41.695Z,9.66
2023-03-21T21:09:09.362Z,9.52
2023-03-21T21:14:22.362Z,9.49
2023-03-21T21:16:51.657Z,9.37
2023-03-21T21:19:18.895Z,9.32
2023-03-21T21:21:46.069Z,9.30
2023-03-21T21:24:14.521Z,9.30
2023-03-21T21:26:46.147Z,9.24
2023-03-21T21:29:17.061Z,9.27
2023-03-21T21:31:47.379Z,9.36
2023-03-21T21:34:16.193Z,9.42
2023-03-21T21:36:44.947Z,9.42
2023-03-21T21:39:18.551Z,9.35
2023-03-21T21:41:47.363Z,9.39
2023-03-21T21:44:13.913Z,9.39
2023-03-21T21:46:40.653Z,9.45
2023-03-21T21:49:07.109Z,9.46
2023-03-21T21:51:34.616Z,9.53
2023-03-21T21:54:03.522Z,9.54
2023-03-21T21:56:32.079Z,9.63
2023-03-21T21:59:01.958Z,9.51
2023-03-21T22:01:34.774Z,9.51
2023-03-21T22:04:06.542Z,9.42
2023-03-21T22:06:36.890Z,9.52
2023-03-21T22:09:06.932Z,9.48
2023-03-21T22:11:33.634Z,9.43
2023-03-21T22:14:00.096Z,9.39
2023-03-21T22:16:26.550Z,9.38
2023-03-21T22:18:53.012Z,9.34
2023-03-21T22:21:25.955Z,9.30
2023-03-21T22:23:52.385Z,9.27
2023-03-21T22:26:18.820Z,9.21
2023-03-21T22:28:45.385Z,9.09
2023-03-21T22:31:16.415Z,9.05
2023-03-21T22:33:43.515Z,8.85
2023-03-21T22:36:10.847Z,8.76
2023-03-21T22:38:39.323Z,8.61
2023-03-21T22:41:06.336Z,8.52
2023-03-21T22:43:34.242Z,8.62
2023-03-21T22:46:05.456Z,8.57
2023-03-21T22:48:32.955Z,8.49
2023-03-21T22:51:02.735Z,8.44
2023-03-21T22:53:29.588Z,8.35
2023-03-21T22:55:56.073Z,8.24
2023-03-21T22:58:22.887Z,8.26
2023-03-21T23:00:49.463Z,8.22
2023-03-21T23:03:18.079Z,8.22
2023-03-21T23:05:45.295Z,8.19
2023-03-21T23:08:12.879Z,8.11
2023-03-21T23:10:43.336Z,8.03
2023-03-21T23:13:10.144Z,7.96
2023-03-21T23:15:38.501Z,7.94
2023-03-21T23:18:06.389Z,7.77
2023-03-21T23:20:33.009Z,7.73
2023-03-21T23:22:59.519Z,7.73
2023-03-21T23:25:26.032Z,7.81
2023-03-21T23:27:52.467Z,7.80
2023-03-21T23:30:19.033Z,7.82
2023-03-21T23:32:45.463Z,7.83
2023-03-21T23:35:12.041Z,7.78
2023-03-21T23:37:48.967Z,7.82
2023-03-21T23:40:15.959Z,7.86
2023-03-21T23:42:42.415Z,7.85
2023-03-21T23:45:09.210Z,7.94
2023-03-21T23:47:35.739Z,7.96
2023-03-21T23:50:02.272Z,7.92
2023-03-21T23:52:29.872Z,7.93
2023-03-21T23:54:56.511Z,7.90
2023-03-21T23:57:22.971Z,7.94
2023-03-21T23:59:49.470Z,7.97
